Flight Track Log - Related Links

Times and Time Zones

All times are in EDT time to prevent confusion due to time zone crossing. See the N606FT flight status page for this flight to view local times or setup timezone preferences in your user account.

Time Position Orientation Groundspeed Altitude Reporting Facility
EDT Latitude Longitude Course Direction KTS MPH feet Rate Location/Type
Thu 07:58:06 AM 28.2833 -80.7667 180° South 91 105 3,500  Level Orlando TRACON
Thu 07:59:00 AM 28.2667 -80.7667 180° South 105 121 3,600 53 Climbing Orlando TRACON
Thu 08:00:00 AM 28.2333 -80.7667 180° South 112 129 3,600 -50 Level Orlando TRACON
Thu 08:01:00 AM 28.2000 -80.7667 180° South 107 123 3,500  Descending Orlando TRACON
Thu 08:02:00 AM 28.1667 -80.7667 180° South 107 123 3,600  Climbing Orlando TRACON
Thu 08:03:07 AM 28.1333 -80.7667 180° South 109 125 3,500 -52 Descending Orlando TRACON
Thu 08:03:55 AM 28.1167 -80.7667 180° South 109 125 3,500 56 Level Orlando TRACON
Thu 08:04:54 AM 28.0833 -80.7667 180° South 101 116 3,600 53 Climbing Orlando TRACON
Thu 08:05:49 AM 28.0500 -80.7667 180° South 103 119 3,600  Level Orlando TRACON
Thu 08:06:55 AM 28.0333 -80.7667 180° South 101 116 3,600 -34 Level Orlando TRACON
Thu 08:08:43 AM 27.9739 -80.7711 184° South 104 120 3,500 -36 Descending Miami Center
Thu 08:09:43 AM 27.9489 -80.7703 178° South 104 120 3,500  Level Miami Center
Thu 08:10:43 AM 27.9178 -80.7692 178° South 104 120 3,500  Level Miami Center
Thu 08:11:43 AM 27.8864 -80.7706 182° South 104 120 3,500  Level Miami Center
Thu 08:12:43 AM 27.8592 -80.7744 187° South 104 120 3,500  Level Miami Center
Thu 08:13:43 AM 27.8275 -80.7803 189° South 104 120 3,500 50 Level Miami Center
Thu 08:14:43 AM 27.8025 -80.7794 178° South 104 120 3,600  Climbing Miami Center
Thu 08:15:43 AM 27.7733 -80.7808 182° South 104 120 3,500  Descending Miami Center
Thu 08:16:43 AM 27.7400 -80.7819 182° South 104 120 3,600 50 Climbing Miami Center
Thu 08:17:43 AM 27.7108 -80.7808 178° South 104 120 3,600  Level Miami Center
Thu 08:18:43 AM 27.6817 -80.7753 170° South 104 120 3,600  Level Miami Center
Thu 08:19:43 AM 27.6547 -80.7697 170° South 104 120 3,600 -50 Level Miami Center
Thu 08:20:43 AM 27.6256 -80.7686 178° South 104 120 3,500 -50 Descending Miami Center
Thu 08:21:43 AM 27.5942 -80.7675 178° South 104 120 3,500  Level Miami Center
Thu 08:22:43 AM 27.5650 -80.7689 182° South 104 120 3,500  Level Miami Center
Thu 08:23:43 AM 27.5336 -80.7678 178° South 104 120 3,500 50 Level Miami Center
Thu 08:24:43 AM 27.5086 -80.7647 174° South 104 120 3,600  Climbing Miami Center
Thu 08:25:43 AM 27.4814 -80.7683 187° South 104 120 3,500 -100 Descending Miami Center

Login

Don't have an account? Register now (free) for customized features, flight alerts, and more!